Time;durP1;ratioP1;P1;durP2;ratioP2;P2;SDS_P1;SDS_P2;PMS_P1;PMS_P2;Temp;Humidity;BMP_temperature;BMP_pressure;BME280_temperature;BME280_humidity;BME280_pressure;Samples;Min_cycle;Max_cycle;Signal;HPM_P1;HPM_P2
2021/12/06 00:01:43;;;;;;;19.17;12.82;;;4.10;78.80;;;3.08;65.75;93950.28;5072031;28;20203;-82
2021/12/06 00:04:40;;;;;;;19.80;13.18;;;4.10;78.80;;;3.07;65.71;93953.84;5055620;28;20318;-82
2021/12/06 00:07:20;;;;;;;21.40;14.02;;;4.10;78.90;;;3.05;65.82;93953.19;5069697;28;20203;-81
2021/12/06 00:09:47;;;;;;;19.77;13.05;;;4.20;79.80;;;3.10;65.62;93960.47;5055233;28;20265;-83
2021/12/06 00:12:16;;;;;;;20.98;12.95;;;4.10;78.80;;;3.10;65.87;93950.94;5054920;28;20305;-82
2021/12/06 00:14:44;;;;;;;22.55;13.32;;;4.10;78.90;;;3.14;65.95;93966.94;5089293;28;20732;-82
2021/12/06 00:17:16;;;;;;;17.13;12.23;;;4.10;78.90;;;3.11;65.50;93962.09;5055553;28;20598;-82
2021/12/06 00:19:44;;;;;;;22.58;13.20;;;4.10;78.90;;;3.16;65.68;93963.19;5087529;28;20226;-82
2021/12/06 00:22:23;;;;;;;20.35;13.45;;;4.10;79.00;;;3.17;65.73;93974.34;5055306;28;20200;-82
2021/12/06 00:24:56;;;;;;;23.92;13.05;;;4.10;78.90;;;3.16;65.84;93964.97;5056328;28;20225;-82
2021/12/06 00:27:24;;;;;;;18.65;13.20;;;4.10;78.90;;;3.19;65.46;93970.63;5038804;28;20238;-82
2021/12/06 00:29:53;;;;;;;18.05;12.10;;;4.10;78.80;;;3.14;65.42;93959.16;5037262;28;20225;-83
2021/12/06 00:32:21;;;;;;;19.35;12.35;;;4.10;78.80;;;3.16;65.51;93963.19;5071674;28;20199;-82
2021/12/06 00:34:49;;;;;;;16.42;10.82;;;4.10;78.80;;;3.22;65.45;93960.91;5054493;28;20400;-82
2021/12/06 00:37:22;;;;;;;20.52;12.70;;;4.10;78.80;;;3.20;65.42;93959.28;5083709;28;20643;-81
2021/12/06 00:39:55;;;;;;;18.10;12.05;;;4.20;78.90;;;3.22;65.61;93971.28;5052312;28;20230;-82
2021/12/06 00:42:28;;;;;;;17.95;11.57;;;4.10;78.80;;;3.20;65.71;93972.25;5036715;28;20196;-82
2021/12/06 00:44:55;;;;;;;19.23;13.25;;;4.20;78.90;;;3.18;65.71;93970.78;5038588;28;20515;-82
2021/12/06 00:47:24;;;;;;;17.02;11.73;;;4.20;78.70;;;3.18;65.63;93983.75;5053817;28;20227;-81
2021/12/06 00:49:51;;;;;;;17.02;11.35;;;4.20;78.70;;;3.16;65.53;93973.56;5086347;28;20216;-82
2021/12/06 00:52:20;;;;;;;17.50;12.27;;;4.20;78.80;;;3.17;65.53;93979.53;5071382;28;20619;-81
2021/12/06 00:54:47;;;;;;;17.85;11.65;;;4.10;78.70;;;3.17;65.45;93982.13;5071611;28;20226;-82
2021/12/06 00:57:16;;;;;;;18.17;11.15;;;4.10;78.60;;;3.16;65.25;93976.16;5082816;28;20192;-82
2021/12/06 00:59:43;;;;;;;16.60;10.63;;;4.10;78.60;;;3.14;65.59;93978.09;5087831;28;20231;-82
2021/12/06 01:02:12;;;;;;;17.10;11.68;;;4.10;78.60;;;3.11;65.73;93982.81;5070760;28;20207;-82
2021/12/06 01:04:43;;;;;;;18.85;10.85;;;4.10;78.60;;;3.04;65.34;93970.53;5071217;28;20292;-82
2021/12/06 01:07:11;;;;;;;17.92;12.43;;;4.20;78.70;;;3.09;65.32;93983.00;5054428;28;20198;-81
2021/12/06 01:09:41;;;;;;;17.58;11.43;;;4.10;78.60;;;3.06;65.31;93988.50;5038020;28;20622;-82
2021/12/06 01:12:09;;;;;;;16.83;11.95;;;4.10;78.60;;;3.02;65.63;93988.03;5087859;28;20206;-82
2021/12/06 01:14:37;;;;;;;21.05;12.07;;;4.10;78.60;;;3.04;65.49;93993.06;5071527;28;20226;-83
2021/12/06 01:17:05;;;;;;;16.95;11.70;;;4.00;78.50;;;3.03;65.44;93989.63;5037937;28;20195;-81
2021/12/06 01:19:34;;;;;;;16.70;11.32;;;4.10;78.60;;;3.02;65.30;93988.03;5053853;28;20223;-82
2021/12/06 01:22:24;;;;;;;19.65;12.15;;;4.00;78.50;;;2.99;65.30;93990.97;5037878;28;20199;-81
2021/12/06 01:24:59;;;;;;;17.83;10.50;;;4.00;78.50;;;3.00;65.41;93999.53;5057072;28;20223;-83
2021/12/06 01:28:01;;;;;;;17.80;11.05;;;4.00;78.50;;;2.97;65.55;93995.50;5055431;28;20210;-82
2021/12/06 01:30:46;;;;;;;21.77;12.10;;;4.00;78.50;;;2.94;65.33;94001.03;5075518;28;20769;-82
2021/12/06 01:39:13;;;;;;;15.93;11.48;;;4.00;79.40;;;2.84;66.08;94006.38;5060249;28;20288;-83
2021/12/06 01:42:00;;;;;;;18.95;12.15;;;3.90;78.50;;;2.81;65.59;94003.34;5056687;28;20310;-82
2021/12/06 01:44:34;;;;;;;18.33;11.82;;;3.90;78.60;;;2.73;65.48;93998.97;5054551;28;20229;-82
2021/12/06 01:47:16;;;;;;;20.02;12.18;;;3.90;78.60;;;2.75;65.55;94009.97;5055298;28;20203;-82
2021/12/06 01:49:55;;;;;;;17.95;11.40;;;3.80;78.50;;;2.72;65.32;94008.53;5054005;28;20227;-81
2021/12/06 01:52:36;;;;;;;21.30;12.25;;;3.80;78.60;;;2.71;65.58;94012.09;5039422;28;20201;-82
2021/12/06 01:55:09;;;;;;;20.27;11.93;;;3.80;78.60;;;2.67;65.49;94002.22;5068032;28;20221;-81
2021/12/06 01:57:37;;;;;;;21.30;13.27;;;3.80;78.70;;;2.66;66.11;94006.59;5054433;28;20611;-82
2021/12/06 02:00:31;;;;;;;18.98;12.20;;;3.80;78.70;;;2.68;65.29;94017.59;5057765;28;20330;-82
2021/12/06 02:03:05;;;;;;;18.42;10.95;;;3.70;78.80;;;2.68;65.71;94016.78;5071376;28;20204;-83
2021/12/06 02:05:40;;;;;;;20.52;12.52;;;3.70;78.70;;;2.70;66.02;94012.25;5054611;28;20307;-83
2021/12/06 02:08:10;;;;;;;17.60;11.20;;;3.80;78.90;;;2.72;66.13;94021.47;5055056;28;20572;-83
2021/12/06 02:10:40;;;;;;;18.83;12.52;;;3.70;78.90;;;2.73;65.97;94019.69;5057952;28;20639;-83
2021/12/06 02:13:12;;;;;;;17.20;11.95;;;3.70;78.90;;;2.75;66.21;94022.91;5022893;28;20234;-83
2021/12/06 02:15:48;;;;;;;20.70;12.65;;;3.80;78.90;;;2.77;66.11;94023.56;5057013;28;20215;-83
2021/12/06 02:21:18;;;;;;;19.50;12.10;;;3.80;79.00;;;2.79;65.89;94010.44;5053538;28;20235;-83
2021/12/06 02:23:49;;;;;;;19.17;12.32;;;3.80;79.00;;;2.84;65.95;94015.94;5070808;28;20213;-82
2021/12/06 02:26:19;;;;;;;19.58;13.30;;;3.80;79.00;;;2.88;65.74;94012.03;5060867;28;20191;-82
2021/12/06 02:28:47;;;;;;;17.50;11.80;;;3.80;79.00;;;2.87;66.03;94011.22;5053948;28;20555;-81
2021/12/06 02:31:21;;;;;;;22.02;13.52;;;3.80;79.00;;;2.82;65.92;94013.50;5037593;28;20208;-82
2021/12/06 02:33:49;;;;;;;19.95;13.20;;;3.90;79.00;;;2.83;66.06;94011.72;5043918;28;20584;-81
2021/12/06 02:36:20;;;;;;;19.63;13.07;;;3.90;79.10;;;2.90;65.75;94019.66;5037509;28;20279;-82
2021/12/06 02:38:48;;;;;;;22.45;14.57;;;3.90;79.10;;;2.88;65.87;94017.19;5071231;28;20517;-82
2021/12/06 02:41:18;;;;;;;20.80;13.95;;;3.90;79.00;;;2.85;65.82;94018.34;5061670;28;20568;-82
2021/12/06 02:43:47;;;;;;;20.70;12.88;;;3.90;79.00;;;2.88;66.01;94019.78;5055291;28;20200;-82
2021/12/06 02:46:18;;;;;;;22.27;12.55;;;3.90;79.00;;;2.86;65.87;94014.78;5069302;28;20214;-81
2021/12/06 02:48:49;;;;;;;20.85;13.85;;;3.90;79.10;;;2.89;66.01;94026.59;5041215;28;20231;-83
2021/12/06 02:51:18;;;;;;;21.70;13.15;;;3.90;79.10;;;2.91;65.96;94035.00;5040866;28;20252;-82
2021/12/06 02:53:46;;;;;;;19.65;13.57;;;3.90;79.80;;;2.92;65.81;94033.22;5073500;28;20308;-82
2021/12/06 02:56:29;;;;;;;21.90;13.70;;;3.90;79.00;;;2.85;65.97;94023.53;5056564;28;20200;-81
2021/12/06 02:59:05;;;;;;;23.60;14.00;;;3.90;79.00;;;2.91;65.92;94021.28;5075266;28;20249;-82
2021/12/06 03:01:43;;;;;;;23.58;14.52;;;3.90;79.10;;;2.95;66.02;94027.72;5054385;28;20222;-81
2021/12/06 03:04:11;;;;;;;20.83;13.55;;;3.90;79.00;;;2.91;65.76;94024.66;5054423;28;20265;-83
2021/12/06 03:06:40;;;;;;;22.17;14.02;;;3.90;79.00;;;2.94;65.75;94024.34;5072394;28;20206;-82
2021/12/06 03:09:16;;;;;;;18.92;13.05;;;3.90;79.00;;;2.94;66.08;94032.09;5056763;28;20219;-82
2021/12/06 03:11:54;;;;;;;23.15;13.27;;;3.90;79.10;;;2.94;65.70;94034.69;5039199;28;20299;-83
2021/12/06 03:14:38;;;;;;;19.88;12.90;;;3.90;79.00;;;2.95;65.71;94033.69;5040018;28;20226;-82
2021/12/06 03:17:14;;;;;;;19.60;12.40;;;4.00;79.10;;;2.96;65.77;94035.31;5057282;28;20286;-82
2021/12/06 03:19:43;;;;;;;19.13;12.85;;;4.00;79.00;;;2.90;66.00;94027.41;5052671;28;20216;-83
2021/12/06 03:22:13;;;;;;;19.55;12.75;;;4.00;79.00;;;2.90;65.98;94025.63;5054072;28;20196;-83
2021/12/06 03:24:44;;;;;;;17.80;11.73;;;3.90;78.90;;;2.91;65.46;94037.59;5076849;28;20653;-80
2021/12/06 03:27:14;;;;;;;18.42;11.75;;;3.90;78.90;;;2.92;65.85;94035.81;5037869;28;20198;-82
2021/12/06 03:29:43;;;;;;;18.27;12.23;;;3.90;78.90;;;2.95;65.81;94038.88;5068455;28;20703;-81
2021/12/06 03:32:12;;;;;;;19.67;12.05;;;3.90;78.90;;;2.96;65.60;94042.28;5069839;28;20738;-81
2021/12/06 03:34:40;;;;;;;16.40;11.35;;;3.90;79.00;;;2.93;65.79;94035.66;5076614;28;20207;-81
2021/12/06 03:37:10;;;;;;;17.65;11.35;;;4.00;79.00;;;2.98;65.70;94035.16;5053746;28;20619;-82
2021/12/06 03:39:47;;;;;;;17.33;11.15;;;3.90;78.90;;;2.99;65.69;94039.34;5038501;28;20215;-82
2021/12/06 03:42:24;;;;;;;17.92;10.20;;;3.90;79.00;;;2.99;65.71;94034.16;5066851;28;20195;-80
2021/12/06 03:44:53;;;;;;;16.25;11.30;;;3.90;78.90;;;2.98;66.00;94032.56;5053754;28;20219;-80
2021/12/06 03:47:30;;;;;;;18.45;11.77;;;4.00;78.90;;;2.95;65.88;94032.91;5049063;28;20207;-81
2021/12/06 03:50:00;;;;;;;20.20;12.02;;;3.90;78.90;;;2.98;65.53;94041.16;5067851;28;20219;-81
2021/12/06 03:52:29;;;;;;;19.02;12.27;;;3.90;78.80;;;2.92;65.91;94034.03;5052452;28;20656;-82
2021/12/06 03:54:59;;;;;;;19.73;12.73;;;3.90;78.80;;;2.94;65.81;94032.09;5069208;28;20655;-83
2021/12/06 03:57:26;;;;;;;18.15;12.02;;;3.90;78.80;;;2.95;65.50;94038.09;5052428;28;20286;-83
2021/12/06 03:59:54;;;;;;;20.63;11.40;;;4.00;78.90;;;2.93;65.73;94035.66;5035650;28;20704;-83
2021/12/06 04:02:29;;;;;;;18.15;12.98;;;3.90;78.90;;;2.88;65.78;94032.75;5036282;28;20199;-82
2021/12/06 04:04:57;;;;;;;17.27;10.98;;;3.90;78.90;;;2.91;65.55;94029.84;5035675;28;20280;-82
2021/12/06 04:07:28;;;;;;;20.85;11.52;;;4.00;78.80;;;2.92;65.38;94038.41;5036078;28;20203;-83
2021/12/06 04:09:56;;;;;;;16.92;10.98;;;3.90;78.80;;;2.92;65.43;94048.75;5050458;28;20277;-82
2021/12/06 04:12:24;;;;;;;17.20;11.13;;;3.90;78.80;;;2.91;65.60;94050.56;5068800;28;20250;-81
2021/12/06 04:14:51;;;;;;;18.08;11.00;;;3.90;78.80;;;2.91;65.60;94047.16;5051439;28;20757;-82
2021/12/06 04:17:19;;;;;;;16.42;11.00;;;3.90;78.90;;;2.88;65.78;94049.09;5055217;28;20429;-83
2021/12/06 04:19:47;;;;;;;20.08;12.13;;;3.90;78.90;;;2.91;65.65;94057.53;5048487;28;20216;-82
2021/12/06 04:22:16;;;;;;;19.08;12.45;;;3.90;78.90;;;2.90;65.75;94058.50;5053056;28;20238;-83
2021/12/06 04:24:45;;;;;;;18.15;12.20;;;3.90;79.00;;;2.92;65.88;94057.34;5052199;28;20227;-82
2021/12/06 04:27:14;;;;;;;16.75;10.75;;;3.90;79.00;;;2.95;65.63;94063.97;5069172;28;20286;-83
2021/12/06 04:29:47;;;;;;;19.88;12.18;;;3.90;79.00;;;2.97;66.02;94062.03;5070210;28;20313;-83
2021/12/06 04:32:19;;;;;;;20.83;12.43;;;3.90;79.00;;;2.96;65.75;94066.41;5071589;28;20626;-81
2021/12/06 04:34:46;;;;;;;18.25;11.90;;;3.90;79.10;;;2.94;65.84;94054.59;5049114;28;20574;-82
2021/12/06 04:37:14;;;;;;;17.17;11.27;;;3.90;79.00;;;3.01;65.76;94066.69;5047760;28;20681;-82
2021/12/06 04:39:42;;;;;;;20.73;12.52;;;3.90;79.10;;;2.97;65.55;94062.84;5038737;28;20238;-82
2021/12/06 04:42:10;;;;;;;17.38;11.80;;;3.90;79.00;;;3.02;65.74;94077.88;5050327;28;20215;-82
2021/12/06 04:44:38;;;;;;;23.05;13.05;;;4.00;79.10;;;3.01;65.66;94079.66;5068552;28;20222;-82
2021/12/06 04:47:07;;;;;;;24.45;13.82;;;3.90;79.00;;;3.01;65.89;94078.88;5052719;28;20509;-82
2021/12/06 04:49:36;;;;;;;22.48;13.98;;;4.00;79.00;;;3.02;65.83;94085.66;5032863;28;20227;-82
2021/12/06 04:52:09;;;;;;;23.20;14.23;;;4.00;79.80;;;3.00;65.69;94085.00;5053456;28;20494;-83
2021/12/06 04:54:42;;;;;;;21.42;14.48;;;3.90;79.00;;;2.99;65.76;94091.16;5035651;28;20219;-81
2021/12/06 04:57:20;;;;;;;20.20;14.15;;;4.00;78.90;;;2.92;65.64;94096.22;5069839;28;20245;-82
2021/12/06 05:00:00;;;;;;;23.45;15.02;;;3.90;78.80;;;2.84;65.58;94083.25;5086402;28;20314;-82
2021/12/06 05:02:33;;;;;;;20.27;14.23;;;4.00;78.90;;;2.79;65.81;94086.34;5062387;28;20593;-82
2021/12/06 05:05:15;;;;;;;22.63;14.90;;;3.90;78.70;;;2.74;65.75;94093.00;5048553;28;20225;-82
2021/12/06 05:07:54;;;;;;;20.52;13.80;;;3.90;78.60;;;2.66;65.93;94096.38;5049747;28;20776;-82
2021/12/06 05:10:22;;;;;;;23.92;15.05;;;3.80;78.60;;;2.56;66.11;94088.78;5051208;28;20215;-82
2021/12/06 05:12:51;;;;;;;22.17;14.10;;;3.80;78.40;;;2.50;65.75;94097.22;5087150;28;20203;-82
2021/12/06 05:15:19;;;;;;;23.40;14.90;;;3.80;78.50;;;2.44;65.93;94098.69;5071300;28;20216;-81
2021/12/06 05:17:46;;;;;;;19.63;13.40;;;3.70;78.40;;;2.39;65.81;94098.34;5073080;28;20656;-81
2021/12/06 05:20:16;;;;;;;23.23;14.70;;;3.60;78.40;;;2.30;66.15;94097.53;5068576;28;20243;-81
2021/12/06 05:22:47;;;;;;;24.98;15.18;;;3.60;78.60;;;2.33;66.55;94115.34;5069736;28;20199;-81
2021/12/06 05:25:15;;;;;;;23.48;14.73;;;3.50;78.70;;;2.32;66.39;94124.06;5037935;28;20219;-81
2021/12/06 05:27:43;;;;;;;21.85;14.55;;;3.50;78.90;;;2.35;66.64;94130.69;5071213;28;20664;-80
2021/12/06 05:30:14;;;;;;;19.80;13.75;;;3.50;79.00;;;2.35;66.80;94133.28;5037681;28;20219;-81
2021/12/06 05:32:43;;;;;;;20.88;13.93;;;3.50;79.10;;;2.38;66.93;94135.53;5051295;28;20211;-80
2021/12/06 05:35:13;;;;;;;19.33;13.60;;;3.40;80.00;;;2.39;66.71;94137.97;5052137;28;20223;-80
2021/12/06 05:37:48;;;;;;;19.95;12.80;;;3.40;79.30;;;2.40;66.66;94134.44;5053122;28;20683;-80
2021/12/06 05:40:29;;;;;;;26.85;15.32;;;3.40;79.30;;;2.44;66.50;94142.69;5056959;28;20758;-80
2021/12/06 05:42:57;;;;;;;24.48;13.60;;;3.50;79.50;;;2.46;66.66;94145.91;5021942;28;20216;-79
2021/12/06 05:45:29;;;;;;;23.27;15.52;;;3.50;79.40;;;2.42;66.75;94151.56;5056226;28;20600;-79
2021/12/06 05:47:56;;;;;;;22.48;13.88;;;3.50;79.40;;;2.49;66.71;94160.28;5058136;28;20237;-80
2021/12/06 05:50:25;;;;;;;20.98;13.27;;;3.50;80.20;;;2.51;66.63;94150.59;5057017;28;20227;-80
2021/12/06 05:52:55;;;;;;;22.88;14.45;;;3.50;79.40;;;2.53;66.65;94166.78;5073874;28;20723;-80
2021/12/06 05:55:27;;;;;;;24.23;14.95;;;3.50;79.40;;;2.51;66.88;94161.75;5057762;28;20219;-80
2021/12/06 05:58:00;;;;;;;24.92;14.77;;;3.50;79.40;;;2.51;66.84;94171.31;5041666;28;20203;-80
2021/12/06 06:00:31;;;;;;;25.05;15.90;;;3.50;79.40;;;2.49;66.93;94170.66;5056895;28;20215;-80
2021/12/06 06:03:05;;;;;;;28.02;15.63;;;3.50;79.40;;;2.48;67.06;94169.84;5041683;28;20685;-80
2021/12/06 06:05:34;;;;;;;24.00;15.15;;;3.50;79.50;;;2.51;66.66;94169.50;5057466;28;20217;-80
2021/12/06 06:08:03;;;;;;;22.73;15.05;;;3.50;79.50;;;2.53;66.97;94177.16;5037736;28;20544;-80
2021/12/06 06:10:31;;;;;;;21.20;15.50;;;3.50;79.40;;;2.53;66.76;94161.63;5070825;28;20253;-80
2021/12/06 06:13:01;;;;;;;23.08;14.23;;;3.50;79.50;;;2.56;66.66;94174.22;5037721;28;20295;-81
2021/12/06 06:15:29;;;;;;;22.85;13.95;;;3.60;79.50;;;2.52;66.67;94165.16;5053787;28;20215;-80
2021/12/06 06:18:01;;;;;;;23.33;14.57;;;3.50;79.30;;;2.56;66.42;94175.06;5053631;28;20211;-80
2021/12/06 06:20:43;;;;;;;22.85;14.40;;;3.60;79.40;;;2.55;66.18;94180.38;5040344;28;20215;-80
2021/12/06 06:23:11;;;;;;;26.80;15.20;;;3.50;79.30;;;2.50;66.54;94191.22;5041061;28;20316;-80
2021/12/06 06:25:39;;;;;;;24.25;15.40;;;3.60;79.30;;;2.43;66.69;94177.28;5057344;28;20302;-80
2021/12/06 06:28:07;;;;;;;25.02;14.60;;;3.50;79.20;;;2.45;66.58;94190.88;5057105;28;20619;-80
2021/12/06 06:30:34;;;;;;;21.83;14.23;;;3.50;79.30;;;2.43;66.38;94187.66;5037176;28;20212;-80
2021/12/06 06:33:03;;;;;;;22.80;14.05;;;3.50;79.30;;;2.44;66.53;94207.38;5053794;28;20602;-80
2021/12/06 06:35:31;;;;;;;21.90;14.50;;;3.50;79.30;;;2.46;66.97;94200.25;5052012;28;20221;-80
2021/12/06 06:37:59;;;;;;;22.17;13.90;;;3.50;80.10;;;2.44;66.80;94196.22;5088041;28;20577;-80
2021/12/06 06:40:26;;;;;;;21.38;14.45;;;3.50;79.40;;;2.50;67.01;94211.09;5057158;28;20465;-80
2021/12/06 06:42:54;;;;;;;22.90;13.88;;;3.50;79.50;;;2.50;66.79;94208.50;5056617;28;20596;-80
2021/12/06 06:45:22;;;;;;;21.00;13.32;;;3.50;79.50;;;2.52;66.77;94219.53;5073365;28;20218;-80
2021/12/06 06:47:50;;;;;;;20.92;14.38;;;3.50;79.50;;;2.52;66.96;94219.53;5055914;28;20242;-81
2021/12/06 06:50:19;;;;;;;24.30;15.27;;;3.50;79.60;;;2.54;66.59;94215.00;5040046;28;20319;-80
2021/12/06 06:52:48;;;;;;;19.60;13.75;;;3.50;79.70;;;2.55;66.66;94226.97;5040499;28;20199;-81
2021/12/06 06:55:16;;;;;;;22.23;14.27;;;3.50;79.60;;;2.56;66.81;94226.00;5039018;28;20606;-81
2021/12/06 06:57:45;;;;;;;25.55;15.27;;;3.50;79.50;;;2.56;66.60;94226.81;5040227;28;20199;-80
2021/12/06 07:00:19;;;;;;;22.48;14.52;;;3.50;79.50;;;2.55;66.72;94230.38;5073701;28;20216;-80
2021/12/06 07:02:46;;;;;;;23.73;15.05;;;3.50;79.50;;;2.55;67.03;94239.91;5036577;28;20230;-82
2021/12/06 07:05:14;;;;;;;25.75;15.73;;;3.60;80.40;;;2.54;67.06;94231.34;5069141;28;20214;-81
2021/12/06 07:07:42;;;;;;;25.20;15.82;;;3.60;79.70;;;2.54;67.27;94235.72;5040054;28;20253;-81
2021/12/06 07:10:11;;;;;;;25.30;15.63;;;3.60;79.70;;;2.55;66.99;94230.38;5039895;28;20219;-81
2021/12/06 07:12:48;;;;;;;23.73;15.82;;;3.60;79.90;;;2.60;67.21;94244.59;5072789;28;20191;-81
2021/12/06 07:15:20;;;;;;;25.85;15.35;;;3.60;79.90;;;2.63;66.87;94239.13;5056698;28;20280;-80
2021/12/06 07:17:47;;;;;;;23.63;15.00;;;3.60;80.00;;;2.65;67.25;94232.81;5039717;28;20677;-81
2021/12/06 07:20:15;;;;;;;24.70;15.73;;;3.70;80.00;;;2.70;67.25;94229.75;5056456;28;20624;-81
2021/12/06 07:22:44;;;;;;;27.35;15.60;;;3.60;80.00;;;2.70;66.94;94237.53;5039620;28;20705;-80
2021/12/06 07:25:13;;;;;;;23.60;14.90;;;3.70;80.00;;;2.78;67.11;94241.88;5055888;28;20217;-81
2021/12/06 07:27:41;;;;;;;20.45;13.40;;;3.70;80.00;;;2.82;67.15;94244.00;5056082;28;20203;-80
2021/12/06 07:30:12;;;;;;;23.08;15.00;;;3.70;80.00;;;2.87;67.27;94257.28;5072017;28;20219;-81
2021/12/06 07:32:41;;;;;;;24.10;14.82;;;3.70;80.00;;;2.91;67.19;94250.00;5060093;28;20574;-81
2021/12/06 07:35:10;;;;;;;24.58;15.30;;;3.80;80.10;;;2.91;67.13;94241.44;5036331;28;20212;-80
2021/12/06 07:37:37;;;;;;;23.25;15.48;;;3.80;80.10;;;2.97;67.10;94239.00;5084246;28;20195;-79
2021/12/06 07:40:09;;;;;;;23.63;15.60;;;3.80;80.10;;;2.96;67.25;94241.75;5045293;28;20222;-81
2021/12/06 07:42:36;;;;;;;24.27;15.63;;;3.90;80.10;;;3.01;67.22;94245.44;5069645;28;20281;-79
2021/12/06 07:45:06;;;;;;;26.90;17.33;;;3.90;80.10;;;3.07;67.06;94249.19;5072326;28;20306;-81
2021/12/06 07:47:37;;;;;;;25.50;17.23;;;4.00;80.20;;;3.11;67.24;94249.69;5055813;28;20187;-80
2021/12/06 07:50:09;;;;;;;23.80;15.57;;;4.00;80.10;;;3.12;66.81;94246.13;5072385;28;20685;-81
2021/12/06 07:52:37;;;;;;;27.20;17.50;;;4.00;80.10;;;3.11;67.17;94247.88;5072002;28;20199;-80
2021/12/06 07:55:10;;;;;;;25.27;16.15;;;4.00;80.10;;;3.16;67.29;94250.81;5039063;28;20216;-81
2021/12/06 07:57:37;;;;;;;26.17;15.68;;;4.10;80.10;;;3.18;67.01;94248.84;5055189;28;20570;-81
2021/12/06 08:00:12;;;;;;;25.48;15.68;;;4.20;81.00;;;3.19;66.62;94266.03;5038839;28;20311;-80
2021/12/06 08:02:40;;;;;;;25.40;16.02;;;4.10;80.10;;;3.19;66.89;94268.63;5064400;28;20226;-80
2021/12/06 08:05:30;;;;;;;26.60;16.45;;;4.10;80.00;;;3.19;66.81;94268.63;5055712;28;20229;-81
2021/12/06 08:08:17;;;;;;;24.00;15.93;;;4.10;80.00;;;3.22;67.04;94271.88;5057516;28;20565;-81
2021/12/06 08:10:49;;;;;;;23.23;14.75;;;4.20;80.00;;;3.25;66.91;94271.53;5067853;28;20243;-81
2021/12/06 08:13:24;;;;;;;31.83;16.92;;;4.20;80.00;;;3.27;67.00;94275.59;5068689;28;20708;-81
2021/12/06 08:15:55;;;;;;;25.50;16.30;;;4.20;80.00;;;3.30;67.06;94282.25;5055406;28;20215;-80
2021/12/06 08:18:22;;;;;;;25.88;15.75;;;4.20;80.00;;;3.32;66.97;94282.88;5088818;28;20199;-81
2021/12/06 08:20:51;;;;;;;25.92;16.70;;;4.20;80.00;;;3.35;66.91;94277.38;5071250;28;20219;-79
2021/12/06 08:23:19;;;;;;;27.30;16.88;;;4.20;80.00;;;3.37;66.67;94275.44;5067862;28;20226;-81
2021/12/06 08:25:49;;;;;;;24.98;16.13;;;4.30;80.80;;;3.34;66.68;94288.72;5033608;28;20246;-80
2021/12/06 08:28:17;;;;;;;24.85;15.93;;;4.30;80.00;;;3.42;66.56;94288.72;5035565;28;20302;-80
2021/12/06 08:30:45;;;;;;;25.23;15.68;;;4.30;80.00;;;3.46;66.68;94302.97;5086364;28;20219;-80
2021/12/06 08:33:14;;;;;;;21.65;14.80;;;4.30;80.00;;;3.48;66.59;94301.00;5053560;28;20608;-80
2021/12/06 08:35:48;;;;;;;23.98;15.20;;;4.30;79.90;;;3.54;66.69;94307.34;5052037;28;20276;-80
2021/12/06 08:38:16;;;;;;;26.77;16.38;;;4.40;80.00;;;3.56;66.69;94309.75;5061386;28;20215;-78
2021/12/06 08:40:46;;;;;;;26.65;16.23;;;4.40;79.90;;;3.54;66.37;94307.34;5049152;28;20215;-78
2021/12/06 08:43:19;;;;;;;27.00;17.30;;;4.40;79.80;;;3.55;66.54;94318.50;5060713;28;20226;-79
2021/12/06 08:45:57;;;;;;;24.45;16.60;;;4.40;79.70;;;3.54;66.55;94315.13;5069953;28;20215;-79
2021/12/06 08:48:27;;;;;;;26.73;16.08;;;4.40;79.60;;;3.52;66.32;94309.28;5050752;28;20191;-79
2021/12/06 08:50:59;;;;;;;28.17;17.33;;;4.50;79.70;;;3.55;66.55;94314.13;5077991;28;20195;-80
2021/12/06 08:53:26;;;;;;;24.85;15.98;;;4.40;79.60;;;3.55;66.40;94321.91;5052324;28;20218;-80
2021/12/06 08:55:55;;;;;;;27.00;15.63;;;4.40;79.70;;;3.57;66.56;94319.16;5048144;28;20210;-80
2021/12/06 08:58:22;;;;;;;26.27;16.25;;;4.40;79.80;;;3.62;66.50;94322.88;5049985;28;20204;-79
2021/12/06 09:00:49;;;;;;;25.05;16.15;;;4.50;79.80;;;3.65;66.25;94327.75;5049047;28;20642;-80
2021/12/06 09:03:17;;;;;;;25.98;17.02;;;4.50;79.80;;;3.70;66.39;94319.47;5075948;28;20314;-79
2021/12/06 09:05:50;;;;;;;26.52;16.85;;;4.50;79.80;;;3.74;66.24;94322.56;5053233;28;20631;-79
2021/12/06 09:08:17;;;;;;;27.65;17.27;;;4.60;79.80;;;3.77;66.22;94320.44;5053739;28;20191;-80
2021/12/06 09:10:51;;;;;;;23.83;16.40;;;4.60;79.90;;;3.76;66.44;94320.59;5068148;28;20266;-79
2021/12/06 09:13:22;;;;;;;21.90;14.85;;;4.60;79.90;;;3.88;66.46;94334.03;5061561;28;20212;-78
2021/12/06 09:15:52;;;;;;;26.52;17.05;;;4.60;79.90;;;3.90;65.88;94340.69;5042069;28;20314;-79
2021/12/06 09:18:20;;;;;;;27.45;17.15;;;4.70;79.90;;;3.89;65.78;94346.03;5031641;28;20223;-79
2021/12/06 09:20:51;;;;;;;27.73;19.77;;;4.70;79.80;;;3.89;65.94;94340.84;5070760;28;20751;-79
2021/12/06 09:23:19;;;;;;;23.85;16.58;;;4.70;79.60;;;3.90;65.96;94351.06;5054254;28;20639;-80
2021/12/06 09:25:47;;;;;;;25.65;16.15;;;4.80;79.70;;;3.95;65.86;94345.38;5050616;28;20338;-79
2021/12/06 09:28:16;;;;;;;23.40;14.95;;;4.70;79.70;;;3.98;66.15;94339.88;5034586;28;20203;-79
2021/12/06 09:30:45;;;;;;;23.85;15.52;;;4.80;79.80;;;4.01;65.84;94348.09;5050895;28;20224;-80
2021/12/06 09:33:16;;;;;;;22.02;14.82;;;4.80;79.70;;;4.06;65.99;94345.03;5039947;28;20570;-80
2021/12/06 09:35:48;;;;;;;22.52;13.23;;;4.90;79.80;;;4.14;65.95;94346.81;5053517;28;20800;-80
2021/12/06 09:38:22;;;;;;;23.75;14.57;;;4.90;79.80;;;4.20;65.82;94351.34;5054322;28;20317;-80
2021/12/06 09:40:53;;;;;;;21.25;14.68;;;4.90;79.70;;;4.21;65.63;94352.97;5067066;28;20581;-79
2021/12/06 09:43:22;;;;;;;18.63;13.45;;;4.90;79.60;;;4.24;65.45;94341.44;5051562;28;20264;-79
2021/12/06 09:45:51;;;;;;;20.40;13.02;;;5.00;79.50;;;4.26;65.41;94347.25;5053934;28;20227;-79
2021/12/06 09:48:20;;;;;;;25.63;14.35;;;5.00;79.50;;;4.26;64.87;94342.06;5054239;28;20200;-78
2021/12/06 09:51:07;;;;;;;18.95;13.55;;;5.10;79.40;;;4.29;65.25;94341.72;5052803;28;20234;-80
2021/12/06 09:53:38;;;;;;;16.92;12.77;;;5.10;79.30;;;4.37;65.44;94346.09;5053484;28;20207;-79
2021/12/06 09:56:12;;;;;;;23.48;13.48;;;5.10;79.40;;;4.42;65.01;94342.00;5052024;28;20229;-79
2021/12/06 09:58:39;;;;;;;21.08;12.77;;;5.20;79.50;;;4.49;65.20;94329.97;5068817;28;20286;-79
2021/12/06 10:01:14;;;;;;;18.73;12.88;;;5.20;79.60;;;4.54;64.94;94346.84;5069408;28;20202;-80
2021/12/06 10:03:46;;;;;;;18.48;13.63;;;5.30;79.50;;;4.57;64.54;94338.72;5049392;28;20306;-79
2021/12/06 10:06:16;;;;;;;19.50;12.90;;;5.30;79.30;;;4.58;64.76;94335.94;5045420;28;20238;-79
2021/12/06 10:08:46;;;;;;;20.50;12.90;;;5.30;80.00;;;4.60;64.02;94334.00;5037244;28;20270;-79
2021/12/06 10:11:16;;;;;;;16.67;12.52;;;5.40;79.00;;;4.61;64.49;94327.84;5065329;28;20686;-80
2021/12/06 10:13:45;;;;;;;21.08;11.80;;;5.30;79.00;;;4.68;64.42;94338.34;5070155;28;20287;-79
2021/12/06 10:16:14;;;;;;;14.98;11.27;;;5.40;79.00;;;4.67;64.16;94328.91;5037272;28;20248;-79
2021/12/06 10:18:42;;;;;;;16.00;10.38;;;5.40;79.00;;;4.80;64.48;94328.38;5070515;28;20192;-80
2021/12/06 10:21:10;;;;;;;14.45;10.18;;;5.40;79.10;;;4.86;64.68;94329.47;5037819;28;20199;-79
2021/12/06 10:23:39;;;;;;;14.68;10.80;;;5.50;79.10;;;4.91;64.39;94333.19;5056061;28;20734;-79
2021/12/06 10:26:12;;;;;;;17.17;11.40;;;5.60;79.00;;;4.94;63.83;94329.44;5057214;28;20207;-80
2021/12/06 10:28:43;;;;;;;17.13;10.52;;;5.60;78.90;;;4.99;64.37;94334.13;5040678;28;20195;-79
2021/12/06 10:31:13;;;;;;;19.70;11.57;;;5.60;78.80;;;5.00;64.03;94333.16;5040568;28;20630;-79
2021/12/06 10:33:47;;;;;;;17.45;10.38;;;5.70;78.80;;;5.02;63.86;94333.78;5056586;28;20649;-79
2021/12/06 10:36:17;;;;;;;15.68;10.20;;;5.70;78.70;;;5.07;64.25;94318.47;5073576;28;20195;-79
2021/12/06 10:38:53;;;;;;;14.68;10.45;;;5.80;78.80;;;5.17;64.19;94320.84;5057253;28;20320;-79
2021/12/06 10:41:31;;;;;;;13.55;10.00;;;5.80;78.80;;;5.19;63.91;94317.09;5056180;28;20199;-79
2021/12/06 10:44:12;;;;;;;15.38;10.40;;;5.80;78.70;;;5.26;63.78;94331.03;5057153;28;20222;-79
2021/12/06 10:46:46;;;;;;;16.83;10.82;;;5.90;78.50;;;5.24;63.17;94332.97;5056645;28;20192;-79